CDT,Max TemperatureF,Mean TemperatureF,Min TemperatureF,Max Dew PointF,MeanDew PointF,Min DewpointF,Max Humidity, Mean Humidity, Min Humidity, Max Sea Level PressureIn, Mean Sea Level PressureIn, Min Sea Level PressureIn, Max VisibilityMiles, Mean VisibilityMiles, Min VisibilityMiles, Max Wind SpeedMPH, Mean Wind SpeedMPH, Max Gust SpeedMPH,PrecipitationIn, CloudCover, Events, WindDirDegrees
2012-9-1,86,74,62,55,50,45,73,47,23,30.09,30.05,30.00,10,10,10,14,5,20,0.00,0,,77
2012-9-2,89,72,55,61,55,50,82,56,29,30.02,29.95,29.89,10,10,10,10,3,,0.00,0,,143
2012-9-3,80,68,55,68,63,54,94,76,58,29.95,29.92,29.88,10,9,1,9,3,,0.07,1,Rain,202
2012-9-4,93,74,55,66,59,52,100,61,24,29.95,29.84,29.75,10,8,0,26,3,58,0.33,2,Fog-Rain,228
2012-9-5,80,68,51,61,53,43,94,65,28,29.96,29.86,29.75,10,10,5,18,9,24,0.36,2,Rain,316
2012-9-6,82,63,44,50,42,32,93,52,17,30.02,29.94,29.86,10,10,10,13,2,20,0.00,1,,128
2012-9-7,69,60,51,55,46,36,88,60,28,30.04,29.94,29.79,10,10,10,20,7,34,0.00,3,,346
2012-9-8,80,60,41,43,38,32,93,52,17,30.07,29.99,29.84,10,10,10,29,9,37,0.00,1,,302
2012-9-9,71,58,46,46,42,36,93,60,27,30.21,30.14,30.04,10,10,10,10,6,18,0.00,0,,342
2012-9-10,80,60,41,45,41,36,93,52,20,30.13,30.03,29.91,10,10,10,23,7,33,0.00,0,,178
2012-9-11,89,74,59,46,41,32,63,35,13,29.92,29.88,29.83,10,10,10,25,14,33,0.00,0,,185
2012-9-12,73,62,51,52,46,34,94,63,34,30.30,30.12,29.92,10,10,7,15,9,22,0.23,7,Rain,1
2012-9-13,69,58,48,48,42,30,93,64,24,30.39,30.33,30.29,10,10,5,9,3,,0.14,1,Rain,212
2012-9-14,77,60,42,48,41,32,93,58,19,30.33,30.29,30.24,10,10,7,7,3,,0.00,0,,185
2012-9-15,78,61,44,43,38,30,87,48,18,30.26,30.17,30.07,10,10,10,20,6,25,0.00,0,,201
2012-9-16,78,66,53,54,47,39,82,54,32,30.06,29.97,29.89,10,10,10,17,9,23,0.00,0,,214
2012-9-17,62,54,46,55,41,30,93,63,31,30.01,29.96,29.90,10,10,7,17,7,31,0.11,4,Rain,339
2012-9-18,60,48,35,37,32,23,93,58,23,30.06,30.01,29.93,10,10,10,15,5,22,0.00,2,,312
2012-9-19,78,61,44,41,32,23,61,39,14,29.92,29.81,29.71,10,10,4,24,11,33,0.00,1,,237
2012-9-20,66,54,41,36,29,19,71,47,17,29.98,29.93,29.91,10,10,7,17,5,26,0.00,1,,298
2012-9-21,68,54,41,43,36,30,82,53,24,29.92,29.86,29.80,10,10,10,14,4,23,0.00,5,Rain,344
2012-9-22,57,45,33,34,27,21,70,50,30,30.26,30.13,29.86,10,10,10,23,12,32,0.00,3,,324
2012-9-23,59,44,28,30,24,18,93,57,20,30.33,30.27,30.21,10,10,10,13,3,29,0.00,0,,321
2012-9-24,77,54,30,36,28,25,86,46,14,30.21,29.98,29.82,10,10,10,22,5,29,0.00,0,,219
2012-9-25,77,56,35,39,32,23,87,47,15,29.93,29.86,29.80,10,10,7,16,3,24,0.00,0,,353
2012-9-26,68,50,32,32,28,19,93,50,16,30.18,30.07,29.95,10,10,7,8,2,18,0.00,0,,354
2012-9-27,69,51,33,37,34,30,93,58,23,30.25,30.20,30.16,10,10,7,9,2,,0.00,0,,130
2012-9-28,73,53,33,39,33,25,93,54,16,30.24,30.18,30.13,10,10,7,7,1,,0.00,0,,219
2012-9-29,80,58,37,41,31,23,93,46,12,30.16,30.09,30.02,10,9,4,12,2,,0.00,0,,318
2012-9-30,78,60,41,41,34,30,76,45,17,30.03,29.96,29.90,10,10,7,10,1,,0.00,0,,29